Tiempo atmosférico en la estación meteorológica de La Oliva, Puerto de Corralejo, Las Palmas (6 m.)



Fecha
DESCASC
Temp. máxima en grados centígrados (hora)
DESCASC
Temp. mínima en grados centígrados (hora)
DESCASC
Temp. media en grados centígrados
DESCASC
Racha de viento máxima en m/sg (hora)
DESCASC
Velocidad máxima media en intervalos de 10 minutos(hora)
DESCASC
Precipitaciones diarias en mm
DESCASC
Precipitaciones de 00:00 a 06:00 en mm
DESCASC
Precipitaciones de 06:00 a 12:00 en mm
DESCASC
Precipitaciones de 12:00 a 18:00 en mm
DESCASC
Precipitaciones de 18:00 a 24:00 en mm
DESCASC
17-02-2019 20.4 (10:40) 16.1 (06:10) 18.3 9.17 (08:00) 6.94 (19:40) 0 0 0 0 0
16-02-2019 -- (--) -- (--) -- -- (--) -- (--) -- 0 0 0 --
15-02-2019 19.6 (12:50) 13.6 (16:00) 16.6 15 (13:10) 10.28 (13:10) 3.4 0 0 3.4 0
14-02-2019 25.1 (16:00) 15.6 (00:00) 20.4 19.44 (16:00) 13.89 (13:10) 0 0 0 0 0
13-02-2019 19.3 (15:40) 16.3 (00:00) 17.8 10.83 (06:00) 7.22 (06:30) 0 0 0 0 0
12-02-2019 20.1 (14:00) 17.2 (00:00) 18.7 9.72 (03:00) 6.94 (02:30) 0 0 0 0 0
11-02-2019 21.9 (17:40) 17.1 (00:00) 19.5 9.17 (00:30) 6.67 (11:20) 0 0 0 0 0
10-02-2019 20.7 (15:10) 15.2 (00:00) 18 13.33 (23:00) 9.17 (22:50) 0 0 0 0 0
09-02-2019 18.7 (17:30) 15.4 (00:00) 17.1 9.17 (15:00) 6.39 (08:40) 0 0 0 0 0
08-02-2019 19.1 (14:20) 15.8 (00:00) 17.5 9.72 (20:00) 6.67 (01:20) 0 0 0 0 0
07-02-2019 18.7 (17:00) 16 (00:00) 17.4 11.39 (15:00) 7.78 (13:40) 0 0 0 0 0
06-02-2019 20.9 (16:40) 16.9 (00:00) 18.9 10.83 (01:00) 8.61 (02:20) 0 0 0 0 0
05-02-2019 20.3 (17:10) 16.3 (00:00) 18.3 10.83 (10:00) 7.78 (08:40) 0 0 0 0 0
04-02-2019 20.1 (16:30) 16.2 (00:00) 18.2 13.06 (05:00) 9.17 (02:30) 0 0 0 0 0
03-02-2019 18.1 (14:50) 16.1 (00:00) 17.1 15.28 (08:00) 11.39 (06:20) 0 0 0 0 0
02-02-2019 18.5 (16:00) 16.8 (00:00) 17.6 17.78 (20:00) 11.67 (20:00) 0 0 0 0 0
01-02-2019 20.1 (13:40) 17.1 (00:00) 18.6 12.5 (17:30) 8.89 (23:40) 0.2 0 0 0 0.2
31-01-2019 19 (15:50) 15.7 (00:00) 17.3 13.06 (14:00) 9.72 (14:00) 0.2 0 0.2 0 0
30-01-2019 18.8 (14:10) 15.1 (00:00) 16.9 14.17 (22:00) 10 (18:10) 0 0 0 0 0
29-01-2019 19 (12:00) 16.2 (00:00) 17.6 12.78 (06:00) 9.72 (03:30) 0 0 0 0 0
28-01-2019 19.1 (15:10) 16.8 (00:00) 17.9 15.28 (16:00) 10.56 (15:50) 0 0 0 0 0
27-01-2019 -- (--) -- (--) -- -- (--) -- (--) -- 0 0 0 --
26-01-2019 20.2 (11:10) 17 (00:00) 18.6 7.78 (16:00) 5.83 (15:50) 0 0 0 0 0
25-01-2019 20 (11:50) 16.1 (00:00) 18.1 8.33 (04:50) 6.39 (04:50) 0 0 0 0 0
24-01-2019 18.7 (13:00) 14.7 (00:00) 16.7 15.83 (16:00) 8.89 (10:30) 0.2 0 0 0 0.2
23-01-2019 18.6 (13:50) 16.4 (00:00) 17.5 12.22 (01:10) 9.17 (01:40) 0 0 0 0 0
22-01-2019 18.6 (13:50) 16.3 (00:00) 17.4 14.17 (04:00) 10.83 (04:00) 0 0 0 0 0
21-01-2019 18.7 (15:00) 16.2 (00:00) 17.5 16.94 (11:00) 11.67 (11:20) 0 0 0 0 0
20-01-2019 19.6 (16:00) 17.3 (00:00) 18.4 12.78 (22:00) 8.89 (20:10) 0 0 0 0 0
19-01-2019 18.3 (14:40) 16.6 (00:00) 17.4 10.83 (11:10) 9.17 (11:20) 0 0 0 0 0

Gráficas

Temp. máximas Temp. mínimas Temp. medias Precipitaciones Rachas de viento máximas Velocidades máximas media en intervalos de 10 minutos

Datos horarios

Fecha y hora oficial Temperatura (ºC) Velocidad del viento (km/h) Dirección del viento Racha (km/h) Dirección de racha Precipitación (mm) Presión (hPa) Tendencia (hPa) Humedad (%)
2019-02-17 23:00:00 17.6 17 Norte 23 Norte 0 -- -- 78
2019-02-17 22:00:00 17.7 18 Norte 27 Norte 0 -- -- 75
2019-02-17 21:00:00 17.8 21 Norte 31 Norte 0 -- -- 74
2019-02-17 20:00:00 17.9 23 Norte 32 Norte 0 -- -- 77
2019-02-17 19:00:00 18.3 8 Noroeste 14 Noroeste 0 -- -- 62
2019-02-17 18:00:00 19.1 8 Noroeste 13 Norte 0 -- -- 61
2019-02-17 17:00:00 19.2 12 Norte 21 Norte 0 -- -- 63
2019-02-17 16:00:00 20.3 9 Este 17 Este 0 -- -- 58
2019-02-17 15:00:00 19.4 11 Este 22 Este 0 -- -- 67
2019-02-17 14:00:00 19.4 15 Este 26 Este 0 -- -- 63
2019-02-17 13:00:00 19.4 19 Este 31 Este 0 -- -- 59
2019-02-17 12:00:00 19.6 19 Este 27 Este 0 -- -- 53
2019-02-17 11:00:00 20.4 14 Nordeste 21 Nordeste 0 -- -- 45
2019-02-17 10:00:00 18.9 11 Norte 22 Norte 0 -- -- 64
2019-02-17 09:00:00 17.8 17 Norte 28 Norte 0 -- -- 76
2019-02-17 08:00:00 16.8 22 Norte 33 Norte 0 -- -- 82
2019-02-17 07:00:00 16.5 19 Norte 26 Norte 0 -- -- 83
2019-02-17 06:00:00 16.2 13 Norte 23 Norte 0 -- -- 84
2019-02-17 05:00:00 16.7 17 Norte 24 Norte 0 -- -- 81
2019-02-17 04:00:00 16.9 20 Norte 32 Norte 0 -- -- 80
2019-02-17 03:00:00 17.1 19 Norte 28 Norte 0 -- -- 79
2019-02-17 02:00:00 17.4 14 Norte 23 Norte 0 -- -- 67
2019-02-17 01:00:00 17.7 6 Norte 12 Norte 0 -- -- 55
2019-02-17 00:00:00 17.6 6 Nordeste 12 Norte 0 -- -- 62
2019-02-16 23:00:00 17.6 9 Norte 24 Nordeste 0 -- -- 69
2019-02-16 22:00:00 17.6 16 Norte 29 Norte 0 -- -- 77
2019-02-16 21:00:00 -- -- -- -- -- -- -- -- --
2019-02-16 20:00:00 18.5 21 Norte 30 Norte 0 -- -- 65
2019-02-16 19:00:00 18.9 16 Nordeste 30 Nordeste 0 -- -- 55
2019-02-16 18:00:00 20.3 12 Nordeste 23 Norte 0 -- -- 30
2019-02-16 17:00:00 21.5 6 Norte 27 Noroeste 0 -- -- 34
2019-02-16 16:00:00 20.9 12 Nordeste 40 Noroeste 0 -- -- 30
2019-02-16 15:00:00 19.8 25 Norte 39 Noroeste 0 -- -- 74
2019-02-16 14:00:00 19.2 31 Noroeste 50 Norte 0 -- -- 74
2019-02-16 13:00:00 18.9 32 Noroeste 55 Noroeste 0 -- -- 73
2019-02-16 12:00:00 18.4 33 Noroeste 46 Noroeste 0 -- -- 69
2019-02-16 11:00:00 18 25 Noroeste 37 Noroeste 0 -- -- 68
2019-02-16 10:00:00 17.7 25 Noroeste 36 Noroeste 0 -- -- 64
2019-02-16 09:00:00 17.2 23 Noroeste 35 Noroeste 0 -- -- 64
2019-02-16 08:00:00 16.8 23 Noroeste 37 Noroeste 0 -- -- 64
2019-02-16 07:00:00 16.5 24 Noroeste 33 Noroeste 0 -- -- 66
2019-02-16 06:00:00 16.5 21 Noroeste 33 Noroeste 0 -- -- 65
2019-02-16 05:00:00 16.5 18 Noroeste 30 Oeste 0 -- -- 68
2019-02-16 04:00:00 16.4 15 Noroeste 28 Noroeste 0 -- -- 67
2019-02-16 03:00:00 16.5 18 Noroeste 26 Noroeste 0 -- -- 68
2019-02-16 02:00:00 16.4 14 Noroeste 27 Noroeste 0 -- -- 71
2019-02-16 01:00:00 16.4 18 Noroeste 28 Noroeste 0 -- -- 72
2019-02-16 00:00:00 15.4 10 Noroeste 14 Noroeste 0 -- -- 87
2019-02-15 23:00:00 14.5 10 Sudoeste 19 Sudoeste 0 -- -- 88
2019-02-15 22:00:00 14 12 Sudoeste 20 Sudoeste 0 -- -- 89
2019-02-15 21:00:00 13.9 11 Sudoeste 20 Sudoeste 0 -- -- 88
2019-02-15 20:00:00 13.9 11 Sudoeste 17 Sudoeste 0 -- -- 87
2019-02-15 19:00:00 14.5 9 Oeste 16 Oeste 0 -- -- 83
2019-02-15 18:00:00 15.3 10 Oeste 20 Oeste 0 -- -- 79
2019-02-15 17:00:00 15 11 Noroeste 21 Noroeste 0.8 -- -- 79
2019-02-15 16:00:00 13.6 12 Noroeste 38 Noroeste 2.6 -- -- 80
2019-02-15 15:00:00 16.1 28 Noroeste 44 Noroeste 0 -- -- 62
2019-02-15 14:00:00 16.6 27 Noroeste 54 Noroeste 0 -- -- 67
2019-02-15 13:00:00 18.3 27 Noroeste 45 Noroeste 0 -- -- 65
2019-02-15 12:00:00 18.5 28 Sudeste 37 Sudeste 0 -- -- 40
2019-02-15 11:00:00 18.7 24 Sudeste 35 Sudeste 0 -- -- 37
2019-02-15 10:00:00 18.6 22 Sudeste 35 Sudeste 0 -- -- 31
2019-02-15 09:00:00 18 24 Sudeste 38 Sur 0 -- -- 37
2019-02-15 08:00:00 17.6 28 Sudeste 42 Sudeste 0 -- -- 37
2019-02-15 07:00:00 17.3 34 Sudeste 47 Sudeste 0 -- -- 39
2019-02-15 06:00:00 17.3 22 Sudeste 38 Sur 0 -- -- 41
2019-02-15 05:00:00 17.8 28 Sudeste 47 Sudeste 0 -- -- 36
2019-02-15 04:00:00 18 26 Sudeste 35 Sudeste 0 -- -- 40
2019-02-15 03:00:00 18 12 Sudeste 28 Sudeste 0 -- -- 43
2019-02-15 02:00:00 18.6 19 Sudeste 32 Sudeste 0 -- -- 46
2019-02-15 01:00:00 18.9 9 Sudeste 20 Sur 0 -- -- 42
2019-02-15 00:00:00 18.5 9 Sudeste 19 Sudeste 0 -- -- 52
2019-02-14 23:00:00 17.9 10 Sudeste 16 Sudeste 0 -- -- 85
2019-02-14 22:00:00 18.2 3 Este 15 Sudeste 0 -- -- 83
2019-02-14 21:00:00 18.8 12 Sudeste 27 Sudeste 0 -- -- 71
2019-02-14 20:00:00 19.3 24 Sudeste 40 Sudeste 0 -- -- 70
2019-02-14 19:00:00 19.8 23 Sudeste 37 Sudeste 0 -- -- 52
2019-02-14 18:00:00 21.1 29 Sudeste 45 Sudeste 0 -- -- 43
2019-02-14 17:00:00 23 37 Sudeste 59 Sudeste 0 -- -- 27
2019-02-14 16:00:00 25.1 45 Sudeste 70 Sudeste 0 -- -- 14
2019-02-14 15:00:00 23.2 42 Sudeste 59 Sudeste 0 -- -- 23
2019-02-14 14:00:00 23 42 Sudeste 64 Sudeste 0 -- -- 22
2019-02-14 13:00:00 22.5 46 Sudeste 65 Sudeste 0 -- -- 24
2019-02-14 12:00:00 21.6 44 Sudeste 63 Sudeste 0 -- -- 31
2019-02-14 11:00:00 21.3 40 Sudeste 57 Sudeste 0 -- -- 31
2019-02-14 10:00:00 21.3 33 Sudeste 50 Sudeste 0 -- -- 33
2019-02-14 09:00:00 20.5 29 Sudeste 50 Sudeste 0 -- -- 30
2019-02-14 08:00:00 16.7 11 Sudeste 31 Este 0 -- -- 65
2019-02-14 07:00:00 17.8 22 Este 28 Este 0 -- -- 86
2019-02-14 06:00:00 17.9 20 Este 23 Este 0 -- -- 89
2019-02-14 05:00:00 17.7 16 Este 21 Este 0 -- -- 90
2019-02-14 04:00:00 17.8 14 Sudeste 22 Este 0 -- -- 84
2019-02-14 03:00:00 16.5 15 Sudeste 23 Sudeste 0 -- -- 84
2019-02-14 02:00:00 16.2 8 Sudeste 17 Sudeste 0 -- -- 88
2019-02-14 01:00:00 16.8 14 Sudeste 24 Sudeste 0 -- -- 74
2019-02-14 00:00:00 17.1 8 Sudeste 10 Sudeste 0 -- -- 79
2019-02-13 23:00:00 16.7 7 Sur 12 Sudoeste 0 -- -- 92
2019-02-13 22:00:00 16.7 7 Sudeste 12 Sudeste 0 -- -- 95
2019-02-13 21:00:00 17.3 4 Sur 8 Sur 0 -- -- 95
2019-02-13 20:00:00 17.5 6 Sudeste 13 Sudeste 0 -- -- 93
2019-02-13 19:00:00 18 9 Sudeste 14 Este 0 -- -- 92
2019-02-13 18:00:00 19.2 10 Este 18 Sudeste 0 -- -- 86
2019-02-13 17:00:00 19.2 15 Sudeste 25 Sudeste 0 -- -- 86
2019-02-13 16:00:00 19.2 15 Este 25 Este 0 -- -- 86
2019-02-13 15:00:00 19.1 18 Este 27 Este 0 -- -- 85
2019-02-13 14:00:00 19 21 Este 31 Este 0 -- -- 87
2019-02-13 13:00:00 18.5 22 Este 34 Sudeste 0 -- -- 88
2019-02-13 12:00:00 18.5 22 Este 31 Sudeste 0 -- -- 87
2019-02-13 11:00:00 18.1 24 Sudeste 36 Sudeste 0 -- -- 88
2019-02-13 10:00:00 18.3 20 Este 28 Este 0 -- -- 88
2019-02-13 09:00:00 17.7 23 Este 30 Este 0 -- -- 90
2019-02-13 08:00:00 17 20 Este 32 Este 0 -- -- 92
2019-02-13 07:00:00 16.8 25 Este 33 Este 0 -- -- 92
2019-02-13 06:00:00 16.8 24 Este 39 Este 0 -- -- 92
2019-02-13 05:00:00 16.9 23 Este 32 Este 0 -- -- 92
2019-02-13 04:00:00 17 24 Este 35 Este 0 -- -- 93
2019-02-13 03:00:00 17.1 21 Este 27 Este 0 -- -- 94
2019-02-13 02:00:00 17.1 21 Este 26 Este 0 -- -- 94
2019-02-13 01:00:00 17.2 22 Este 32 Este 0 -- -- 94
2019-02-13 00:00:00 17.3 21 Este 29 Este 0 -- -- 94
2019-02-12 23:00:00 17.3 17 Este 23 Este 0 -- -- 94
2019-02-12 22:00:00 17.5 17 Este 28 Este 0 -- -- 94
2019-02-12 21:00:00 17.6 18 Este 26 Este 0 -- -- 94
2019-02-12 20:00:00 17.8 16 Sudeste 23 Este 0 -- -- 93
2019-02-12 19:00:00 18.1 14 Este 20 Este 0 -- -- 91
2019-02-12 18:00:00 19.6 11 Este 20 Este 0 -- -- 86
2019-02-12 17:00:00 20 16 Este 24 Este 0 -- -- 82
2019-02-12 16:00:00 19.8 18 Este 24 Este 0 -- -- 81
2019-02-12 15:00:00 19.5 18 Este 25 Este 0 -- -- 85
2019-02-12 14:00:00 20.1 14 Este 25 Este 0 -- -- 83
2019-02-12 13:00:00 19 22 Este 33 Este 0 -- -- 86
2019-02-12 12:00:00 18.7 22 Este 29 Este 0 -- -- 88
2019-02-12 11:00:00 19.1 21 Este 32 Este 0 -- -- 86
2019-02-12 10:00:00 18.9 22 Este 32 Este 0 -- -- 86
2019-02-12 09:00:00 18.8 18 Este 28 Este 0 -- -- 85
2019-02-12 08:00:00 17.6 18 Este 31 Este 0 -- -- 86
2019-02-12 07:00:00 17.5 18 Este 25 Este 0 -- -- 86
2019-02-12 06:00:00 17.7 20 Este 27 Este 0 -- -- 86
2019-02-12 05:00:00 17.8 21 Este 27 Este 0 -- -- 86
2019-02-12 04:00:00 17.7 19 Este 27 Este 0 -- -- 85
2019-02-12 03:00:00 18 23 Este 35 Este 0 -- -- 86
2019-02-12 02:00:00 18.5 25 Sudeste 31 Sudeste 0 -- -- 76
2019-02-12 01:00:00 17.8 16 Sudeste 20 Sudeste 0 -- -- 75
2019-02-12 00:00:00 19 11 Sudeste 18 Este 0 -- -- 53
2019-02-11 23:00:00 20 10 Sudeste 27 Este 0 -- -- 33
2019-02-11 22:00:00 20.9 10 Sudeste 22 Este 0 -- -- 33
2019-02-11 21:00:00 20.4 13 Este 26 Nordeste 0 -- -- 40
2019-02-11 20:00:00 20.8 21 Nordeste 30 Nordeste 0 -- -- 39
2019-02-11 19:00:00 20.5 17 Este 24 Este 0 -- -- 39
2019-02-11 18:00:00 21.7 16 Este 22 Este 0 -- -- 43
2019-02-11 17:00:00 21 17 Este 22 Nordeste 0 -- -- 60
2019-02-11 16:00:00 20.5 15 Este 21 Este 0 -- -- 70
2019-02-11 15:00:00 20 17 Este 24 Este 0 -- -- 80
2019-02-11 14:00:00 20.4 15 Este 24 Este 0 -- -- 81
2019-02-11 13:00:00 19.9 19 Este 26 Este 0 -- -- 81
2019-02-11 12:00:00 19.9 19 Este 30 Este 0 -- -- 77
2019-02-11 11:00:00 19.8 21 Este 28 Este 0 -- -- 74
2019-02-11 10:00:00 19.7 20 Este 30 Este 0 -- -- 71
2019-02-11 09:00:00 19.7 12 Este 22 Este 0 -- -- 71
2019-02-11 08:00:00 18.4 12 Este 21 Este 0 -- -- 74
2019-02-11 07:00:00 17.7 12 Sudeste 19 Este 0 -- -- 78
2019-02-11 06:00:00 18 13 Este 18 Este 0 -- -- 74
2019-02-11 05:00:00 17.8 8 Sudeste 18 Este 0 -- -- 76
2019-02-11 04:00:00 17.7 12 Este 23 Este 0 -- -- 80
2019-02-11 03:00:00 17.7 16 Este 20 Este 0 -- -- 83
2019-02-11 02:00:00 17.7 18 Este 26 Este 0 -- -- 83
2019-02-11 01:00:00 17.6 12 Este 33 Este 0 -- -- 84
2019-02-11 00:00:00 17.5 5 Este 40 Nordeste 0 -- -- 85
2019-02-10 23:00:00 18.2 32 Nordeste 48 Nordeste 0 -- -- 75
2019-02-10 22:00:00 19.2 14 Este 24 Este 0 -- -- 47
2019-02-10 21:00:00 19.1 11 Este 26 Nordeste 0 -- -- 46
2019-02-10 20:00:00 19.2 23 Nordeste 31 Nordeste 0 -- -- 49
2019-02-10 19:00:00 19.5 9 Este 21 Nordeste 0 -- -- 48
2019-02-10 18:00:00 19.9 17 Nordeste 27 Nordeste 0 -- -- 46
2019-02-10 17:00:00 20.3 17 Nordeste 24 Este 0 -- -- 53
2019-02-10 16:00:00 20.5 17 Este 24 Nordeste 0 -- -- 54
2019-02-10 15:00:00 20.6 18 Este 25 Este 0 -- -- 54
2019-02-10 14:00:00 20.2 17 Este 26 Este 0 -- -- 67
2019-02-10 13:00:00 19.8 19 Este 28 Este 0 -- -- 70
2019-02-10 12:00:00 19.7 19 Este 27 Este 0 -- -- 70
2019-02-10 11:00:00 19.5 17 Este 26 Este 0 -- -- 72
2019-02-10 10:00:00 19 15 Este 24 Este 0 -- -- 82
2019-02-10 09:00:00 18.3 9 Este 13 Este 0 -- -- 85
2019-02-10 08:00:00 16.6 9 Nordeste 22 Este 0 -- -- 90
2019-02-10 07:00:00 16.8 15 Este 22 Este 0 -- -- 88
2019-02-10 06:00:00 16.9 15 Este 26 Este 0 -- -- 88
2019-02-10 05:00:00 16.8 19 Este 31 Este 0 -- -- 88
2019-02-10 04:00:00 16.8 24 Este 31 Este 0 -- -- 88
2019-02-10 03:00:00 16.9 23 Este 31 Este 0 -- -- 90
2019-02-10 02:00:00 16.9 22 Este 33 Este 0 -- -- 92
2019-02-10 01:00:00 16.9 22 Este 33 Este 0 -- -- 92
2019-02-10 00:00:00 15.4 5 Sur 12 Sur 0 -- -- 92
2019-02-09 23:00:00 15.9 5 Sudeste 13 Este 0 -- -- 90
2019-02-09 22:00:00 16.7 9 Este 19 Este 0 -- -- 88
2019-02-09 21:00:00 16.8 13 Este 21 Nordeste 0 -- -- 88
2019-02-09 20:00:00 17 14 Nordeste 20 Este 0 -- -- 87
2019-02-09 19:00:00 17.1 15 Este 25 Este 0 -- -- 85
2019-02-09 18:00:00 18.4 14 Este 26 Este 0 -- -- 73
2019-02-09 17:00:00 18.5 17 Este 23 Este 0 -- -- 73
2019-02-09 16:00:00 18.3 18 Este 27 Este 0 -- -- 73
2019-02-09 15:00:00 18.2 19 Este 33 Este 0 -- -- 72
2019-02-09 14:00:00 18.3 18 Este 28 Este 0 -- -- 72
2019-02-09 13:00:00 18 17 Este 26 Este 0 -- -- 71
2019-02-09 12:00:00 17.7 20 Este 32 Este 0 -- -- 72
2019-02-09 11:00:00 18 19 Este 29 Este 0 -- -- 71
2019-02-09 10:00:00 17.9 18 Este 30 Este 0 -- -- 70
2019-02-09 09:00:00 16.9 22 Este 30 Este 0 -- -- 74
2019-02-09 08:00:00 16 22 Este 32 Este 0 -- -- 77
2019-02-09 07:00:00 16 20 Este 29 Este 0 -- -- 77
2019-02-09 06:00:00 16 19 Este 28 Este 0 -- -- 79
2019-02-09 05:00:00 15.8 19 Nordeste 27 Este 0 -- -- 81
2019-02-09 04:00:00 15.6 16 Nordeste 23 Nordeste 0 -- -- 79
2019-02-09 03:00:00 15.8 15 Nordeste 23 Nordeste 0 -- -- 78
2019-02-09 02:00:00 15.9 19 Nordeste 25 Nordeste 0 -- -- 77
2019-02-09 01:00:00 16 20 Nordeste 27 Nordeste 0 -- -- 78
2019-02-09 00:00:00 16 18 Nordeste 24 Nordeste 0 -- -- 77
2019-02-08 23:00:00 16.2 19 Nordeste 27 Nordeste 0 -- -- 75
2019-02-08 22:00:00 16.4 22 Nordeste 27 Nordeste 0 -- -- 74
2019-02-08 21:00:00 16.5 19 Nordeste 26 Este 0 -- -- 72
2019-02-08 20:00:00 16.8 21 Nordeste 35 Nordeste 0 -- -- 71
2019-02-08 19:00:00 16.7 17 Este 24 Este 0 -- -- 68
2019-02-08 18:00:00 17.9 16 Este 23 Este 0 -- -- 61
2019-02-08 17:00:00 18.6 15 Este 23 Este 0 -- -- 57
2019-02-08 16:00:00 18.8 15 Este 22 Este 0 -- -- 57
2019-02-08 15:00:00 18.3 17 Este 23 Este 0 -- -- 57
2019-02-08 14:00:00 19 14 Este 25 Este 0 -- -- 56
2019-02-08 13:00:00 18.2 18 Este 29 Nordeste 0 -- -- 57
2019-02-08 12:00:00 18.3 19 Este 27 Este 0 -- -- 59
2019-02-08 11:00:00 17.6 17 Nordeste 25 Nordeste 0 -- -- 65
2019-02-08 10:00:00 16.9 18 Nordeste 27 Nordeste 0 -- -- 70
2019-02-08 09:00:00 16.3 17 Nordeste 31 Nordeste 0 -- -- 72
2019-02-08 08:00:00 16.1 19 Nordeste 28 Este 0 -- -- 76
2019-02-08 07:00:00 15.9 19 Nordeste 31 Nordeste 0 -- -- 76
2019-02-08 06:00:00 15.9 18 Nordeste 24 Nordeste 0 -- -- 77
2019-02-08 05:00:00 15.9 17 Nordeste 27 Nordeste 0 -- -- 79
2019-02-08 04:00:00 16 19 Nordeste 28 Nordeste 0 -- -- 79
2019-02-08 03:00:00 15.9 19 Nordeste 30 Nordeste 0 -- -- 78
2019-02-08 02:00:00 16 19 Nordeste 31 Nordeste 0 -- -- 78
2019-02-08 01:00:00 16 22 Nordeste 31 Nordeste 0 -- -- 78
2019-02-08 00:00:00 16 15 Nordeste 26 Nordeste 0 -- -- 79
2019-02-07 23:00:00 16.1 14 Nordeste 26 Nordeste 0 -- -- 76
2019-02-07 22:00:00 16.3 20 Nordeste 30 Nordeste 0 -- -- 76
2019-02-07 21:00:00 16.6 22 Nordeste 38 Nordeste 0 -- -- 76
2019-02-07 20:00:00 16.8 24 Nordeste 34 Nordeste 0 -- -- 77
2019-02-07 19:00:00 17 22 Nordeste 33 Nordeste 0 -- -- 74
2019-02-07 18:00:00 18.1 18 Este 25 Este 0 -- -- 67
2019-02-07 17:00:00 18.7 18 Este 31 Este 0 -- -- 64
2019-02-07 16:00:00 18.5 23 Este 33 Este 0 -- -- 66
2019-02-07 15:00:00 18.3 25 Este 41 Este 0 -- -- 66
2019-02-07 14:00:00 18.5 25 Este 37 Este 0 -- -- 65
2019-02-07 13:00:00 18.4 24 Este 36 Este 0 -- -- 66
2019-02-07 12:00:00 18.2 26 Este 37 Este 0 -- -- 69
2019-02-07 11:00:00 18.1 22 Nordeste 36 Nordeste 0 -- -- 74
2019-02-07 10:00:00 16.9 22 Nordeste 31 Nordeste 0 -- -- 81
2019-02-07 09:00:00 16.5 23 Nordeste 34 Nordeste 0 -- -- 83
2019-02-07 08:00:00 16.2 20 Nordeste 34 Nordeste 0 -- -- 85
2019-02-07 07:00:00 16.2 21 Nordeste 31 Nordeste 0 -- -- 85
2019-02-07 06:00:00 16.3 23 Nordeste 31 Nordeste 0 -- -- 86
2019-02-07 05:00:00 16.3 23 Nordeste 32 Nordeste 0 -- -- 85
2019-02-07 04:00:00 16.4 23 Nordeste 30 Nordeste 0 -- -- 83
2019-02-07 03:00:00 16.6 17 Nordeste 24 Nordeste 0 -- -- 84
2019-02-07 02:00:00 16.5 15 Nordeste 21 Nordeste 0 -- -- 85
2019-02-07 01:00:00 16.6 14 Nordeste 24 Nordeste 0 -- -- 84
2019-02-07 00:00:00 16.9 18 Nordeste 26 Nordeste 0 -- -- 85
2019-02-06 23:00:00 17.1 18 Nordeste 25 Nordeste 0 -- -- 78
2019-02-06 22:00:00 17.5 10 Este 15 Nordeste 0 -- -- 75
2019-02-06 21:00:00 17.9 7 Este 13 Sudeste 0 -- -- 73
2019-02-06 20:00:00 18 7 Este 13 Nordeste 0 -- -- 54
2019-02-06 19:00:00 18 8 Norte 14 Este 0 -- -- 63
2019-02-06 18:00:00 18.7 12 Nordeste 14 Nordeste 0 -- -- 66
2019-02-06 17:00:00 20.9 9 Este 16 Este 0 -- -- 50
2019-02-06 16:00:00 20.6 9 Este 17 Este 0 -- -- 54
2019-02-06 15:00:00 19.9 15 Este 18 Este 0 -- -- 61
2019-02-06 14:00:00 19.7 11 Este 19 Este 0 -- -- 66
2019-02-06 13:00:00 19.4 14 Este 22 Este 0 -- -- 72
2019-02-06 12:00:00 19.2 19 Este 27 Este 0 -- -- 74
2019-02-06 11:00:00 18.9 17 Este 25 Este 0 -- -- 78
2019-02-06 10:00:00 18.5 18 Este 23 Este 0 -- -- 81
2019-02-06 09:00:00 18.2 16 Este 26 Este 0 -- -- 82
2019-02-06 08:00:00 17.1 11 Este 17 Este 0 -- -- 82
2019-02-06 07:00:00 17.1 6 Este 17 Este 0 -- -- 74
2019-02-06 06:00:00 17.5 15 Nordeste 22 Nordeste 0 -- -- 71
2019-02-06 05:00:00 17.3 4 Nordeste 22 Este 0 -- -- 65
2019-02-06 04:00:00 17.9 17 Este 36 Nordeste 0 -- -- 54
2019-02-06 03:00:00 18.9 28 Nordeste 39 Nordeste 0 -- -- 34
2019-02-06 02:00:00 18.9 28 Nordeste 37 Nordeste 0 -- -- 33
2019-02-06 01:00:00 19.1 27 Nordeste 39 Nordeste 0 -- -- 30
2019-02-06 00:00:00 18.6 15 Nordeste 24 Nordeste 0 -- -- 38
2019-02-05 23:00:00 18 6 Este 22 Nordeste 0 -- -- 46
2019-02-05 22:00:00 19 15 Nordeste 23 Nordeste 0 -- -- 40
2019-02-05 21:00:00 17.7 7 Este 23 Nordeste 0 -- -- 48
2019-02-05 20:00:00 19.1 18 Nordeste 26 Nordeste 0 -- -- 38
2019-02-05 19:00:00 18.5 14 Nordeste 19 Nordeste 0 -- -- 48
2019-02-05 18:00:00 18.9 13 Nordeste 17 Nordeste 0 -- -- 45
2019-02-05 17:00:00 20.1 13 Este 19 Este 0 -- -- 33
2019-02-05 16:00:00 19.6 17 Este 28 Este 0 -- -- 48
2019-02-05 15:00:00 18.8 22 Este 29 Sudeste 0 -- -- 45
2019-02-05 14:00:00 19.6 19 Este 29 Este 0 -- -- 48
2019-02-05 13:00:00 18.7 24 Sudeste 33 Sudeste 0 -- -- 46
2019-02-05 12:00:00 18.7 27 Sudeste 36 Sudeste 0 -- -- 49
2019-02-05 11:00:00 19.1 26 Sudeste 35 Este 0 -- -- 60
2019-02-05 10:00:00 18.9 27 Este 39 Este 0 -- -- 62
2019-02-05 09:00:00 18.6 23 Este 34 Este 0 -- -- 77
2019-02-05 08:00:00 17.8 21 Este 36 Este 0 -- -- 77
2019-02-05 07:00:00 17.6 21 Este 29 Este 0 -- -- 82
2019-02-05 06:00:00 17.3 18 Este 28 Este 0 -- -- 84
2019-02-05 05:00:00 17.5 17 Nordeste 23 Nordeste 0 -- -- 85
2019-02-05 04:00:00 17.1 13 Nordeste 15 Nordeste 0 -- -- 88
2019-02-05 03:00:00 17 10 Este 17 Este 0 -- -- 89
2019-02-05 02:00:00 16.4 0 Calma 9 Sudeste 0 -- -- 87
2019-02-05 01:00:00 16.6 5 Sur 10 Sur 0 -- -- 86
2019-02-05 00:00:00 17.4 8 Este 18 Este 0 -- -- 83
2019-02-04 23:00:00 17.7 14 Este 23 Este 0 -- -- 84
2019-02-04 22:00:00 16.6 5 Sur 17 Sudeste 0 -- -- 90
2019-02-04 21:00:00 17.8 13 Este 22 Este 0 -- -- 90
2019-02-04 20:00:00 18 9 Este 15 Este 0 -- -- 86
2019-02-04 19:00:00 18.5 12 Este 17 Este 0 -- -- 76
2019-02-04 18:00:00 19 12 Este 20 Este 0 -- -- 70
2019-02-04 17:00:00 20.1 13 Este 17 Este 0 -- -- 66
2019-02-04 16:00:00 19.8 12 Este 19 Este 0 -- -- 72
2019-02-04 15:00:00 19.1 16 Este 22 Este 0 -- -- 81
2019-02-04 14:00:00 18.7 20 Este 28 Este 0 -- -- 83
2019-02-04 13:00:00 18.5 22 Este 30 Este 0 -- -- 83
2019-02-04 12:00:00 18.4 22 Este 30 Este 0 -- -- 82
2019-02-04 11:00:00 18.1 23 Este 35 Este 0 -- -- 82
2019-02-04 10:00:00 17.7 22 Este 30 Este 0 -- -- 84
2019-02-04 09:00:00 17.1 21 Este 37 Este 0 -- -- 86
2019-02-04 08:00:00 16.4 23 Nordeste 39 Nordeste 0 -- -- 86
2019-02-04 07:00:00 16.4 24 Nordeste 38 Nordeste 0 -- -- 85
2019-02-04 06:00:00 16.4 27 Nordeste 36 Nordeste 0 -- -- 84
2019-02-04 05:00:00 16.5 30 Nordeste 47 Nordeste 0 -- -- 84
2019-02-04 04:00:00 16.5 27 Nordeste 37 Nordeste 0 -- -- 84
2019-02-04 03:00:00 16.3 27 Nordeste 44 Nordeste 0 -- -- 80
2019-02-04 02:00:00 16.4 32 Nordeste 45 Nordeste 0 -- -- 75
2019-02-04 01:00:00 16.3 22 Nordeste 35 Nordeste 0 -- -- 73
2019-02-04 00:00:00 16.3 30 Nordeste 40 Nordeste 0 -- -- 72
2019-02-03 23:00:00 16.4 33 Nordeste 45 Nordeste 0 -- -- 72
2019-02-03 22:00:00 16.4 28 Nordeste 39 Nordeste 0 -- -- 70
2019-02-03 21:00:00 16.2 23 Nordeste 38 Nordeste 0 -- -- 71
2019-02-03 20:00:00 16.5 30 Nordeste 38 Nordeste 0 -- -- 69
2019-02-03 19:00:00 16.8 24 Nordeste 32 Nordeste 0 -- -- 66
2019-02-03 18:00:00 17.7 28 Nordeste 42 Nordeste 0 -- -- 64
2019-02-03 17:00:00 18 30 Nordeste 42 Nordeste 0 -- -- 67
2019-02-03 16:00:00 17.7 32 Nordeste 47 Nordeste 0 -- -- 66
2019-02-03 15:00:00 17.9 31 Nordeste 47 Nordeste 0 -- -- 63
2019-02-03 14:00:00 17.8 32 Nordeste 45 Nordeste 0 -- -- 64
2019-02-03 13:00:00 17.7 32 Nordeste 53 Nordeste 0 -- -- 64
2019-02-03 12:00:00 17.8 27 Nordeste 40 Nordeste 0 -- -- 63
2019-02-03 11:00:00 17.5 24 Nordeste 40 Norte 0 -- -- 63
2019-02-03 10:00:00 17.2 29 Nordeste 41 Nordeste 0 -- -- 63
2019-02-03 09:00:00 16.6 29 Norte 45 Nordeste 0 -- -- 64
2019-02-03 08:00:00 16.5 36 Nordeste 55 Norte 0 -- -- 68
2019-02-03 07:00:00 16.4 34 Nordeste 53 Nordeste 0 -- -- 66
2019-02-03 06:00:00 16.6 37 Norte 50 Nordeste 0 -- -- 67
2019-02-03 05:00:00 16.4 33 Norte 43 Norte 0 -- -- 64
2019-02-03 04:00:00 16.4 32 Nordeste 44 Nordeste 0 -- -- 63
2019-02-03 03:00:00 16.4 29 Norte 44 Norte 0 -- -- 62
2019-02-03 02:00:00 16.8 33 Norte 48 Nordeste 0 -- -- 64
2019-02-03 01:00:00 16.9 31 Norte 45 Norte 0 -- -- 63
2019-02-03 00:00:00 17 28 Norte 44 Norte 0 -- -- 62
2019-02-02 23:00:00 17 27 Norte 42 Norte 0 -- -- 63
2019-02-02 22:00:00 17.1 29 Norte 44 Norte 0 -- -- 62
2019-02-02 21:00:00 16.8 28 Norte 49 Norte 0 -- -- 60
2019-02-02 20:00:00 17.2 42 Norte 64 Norte 0 -- -- 60
2019-02-02 19:00:00 17.4 37 Norte 52 Norte 0 -- -- 66
2019-02-02 18:00:00 17.6 32 Norte 46 Norte 0 -- -- 63
2019-02-02 17:00:00 17.9 31 Norte 44 Norte 0 -- -- 63
2019-02-02 16:00:00 18.5 31 Norte 46 Norte 0 -- -- 56
2019-02-02 15:00:00 18.1 31 Norte 39 Norte 0 -- -- 63
2019-02-02 14:00:00 18.1 30 Norte 41 Norte 0 -- -- 59
2019-02-02 13:00:00 18.1 27 Norte 38 Noroeste 0 -- -- 55
2019-02-02 12:00:00 17.7 31 Norte 44 Norte 0 -- -- 56
2019-02-02 11:00:00 17.5 20 Nordeste 41 Norte 0 -- -- 57
2019-02-02 10:00:00 17.2 28 Norte 41 Norte 0 -- -- 57
2019-02-02 09:00:00 17 20 Norte 38 Norte 0 -- -- 60
2019-02-02 08:00:00 17 29 Norte 41 Norte 0 -- -- 60
2019-02-02 07:00:00 16.9 23 Nordeste 34 Nordeste 0 -- -- 62
2019-02-02 06:00:00 17 27 Norte 36 Norte 0 -- -- 66
2019-02-02 05:00:00 16.9 23 Norte 39 Norte 0 -- -- 67
2019-02-02 04:00:00 17.1 35 Norte 44 Norte 0 -- -- 73
2019-02-02 03:00:00 17.2 16 Norte 31 Norte 0 -- -- 70
2019-02-02 02:00:00 17.3 23 Norte 39 Norte 0 -- -- 75
2019-02-02 01:00:00 17.6 28 Norte 38 Norte 0 -- -- 83
2019-02-02 00:00:00 17.4 30 Norte 39 Norte 0 -- -- 91
2019-02-01 23:00:00 17.5 22 Norte 38 Norte 0.2 -- -- 94
2019-02-01 22:00:00 18.4 17 Noroeste 30 Noroeste 0 -- -- 87
2019-02-01 21:00:00 18.2 23 Noroeste 32 Noroeste 0 -- -- 86
2019-02-01 20:00:00 18 22 Noroeste 29 Noroeste 0 -- -- 89
2019-02-01 19:00:00 17.7 21 Noroeste 44 Noroeste 0 -- -- 92
2019-02-01 18:00:00 17.1 20 Noroeste 45 Noroeste 0 -- -- 93
2019-02-01 17:00:00 18.2 23 Oeste 42 Noroeste 0 -- -- 78
2019-02-01 16:00:00 19.5 25 Noroeste 40 Oeste 0 -- -- 66
2019-02-01 15:00:00 20 23 Oeste 37 Oeste 0 -- -- 63
2019-02-01 14:00:00 19.8 23 Noroeste 34 Noroeste 0 -- -- 62
2019-02-01 13:00:00 20 17 Noroeste 27 Noroeste 0 -- -- 61
2019-02-01 12:00:00 19.6 17 Noroeste 28 Noroeste 0 -- -- 62
2019-02-01 11:00:00 18.8 18 Noroeste 27 Noroeste 0 -- -- 64
2019-02-01 10:00:00 18.4 15 Noroeste 22 Noroeste 0 -- -- 66
2019-02-01 09:00:00 18.6 17 Noroeste 26 Noroeste 0 -- -- 63
2019-02-01 08:00:00 17.5 11 Noroeste 23 Oeste 0 -- -- 64
2019-02-01 07:00:00 17.5 15 Noroeste 23 Noroeste 0 -- -- 62
2019-02-01 06:00:00 17.5 18 Noroeste 27 Noroeste 0 -- -- 59
2019-02-01 05:00:00 17.4 14 Oeste 30 Noroeste 0 -- -- 61
2019-02-01 04:00:00 17.3 19 Noroeste 32 Noroeste 0 -- -- 60
2019-02-01 03:00:00 17.4 15 Noroeste 30 Noroeste 0 -- -- 60
2019-02-01 02:00:00 17.6 15 Noroeste 29 Norte 0 -- -- 57
2019-02-01 01:00:00 17.8 17 Noroeste 31 Noroeste 0 -- -- 57
2019-02-01 00:00:00 17.8 15 Noroeste 22 Noroeste 0 -- -- 60
2019-01-31 23:00:00 17.8 16 Noroeste 27 Noroeste 0 -- -- 55
2019-01-31 22:00:00 17.7 17 Noroeste 27 Noroeste 0 -- -- 59
2019-01-31 21:00:00 17.7 14 Noroeste 32 Norte 0 -- -- 60
2019-01-31 20:00:00 17.7 19 Noroeste 31 Noroeste 0 -- -- 63
2019-01-31 19:00:00 17.5 18 Norte 30 Norte 0 -- -- 68
2019-01-31 18:00:00 17.9 20 Norte 29 Norte 0 -- -- 66
2019-01-31 17:00:00 18.2 18 Noroeste 28 Noroeste 0 -- -- 61
2019-01-31 16:00:00 19 23 Norte 32 Norte 0 -- -- 60
2019-01-31 15:00:00 18.3 20 Noroeste 36 Norte 0 -- -- 68
2019-01-31 14:00:00 17.6 35 Norte 47 Norte 0 -- -- 74
2019-01-31 13:00:00 17.8 26 Noroeste 41 Noroeste 0 -- -- 74
2019-01-31 12:00:00 17.1 17 Noroeste 31 Norte 0 -- -- 82
2019-01-31 11:00:00 16.7 11 Noroeste 35 Norte 0.2 -- -- 84
2019-01-31 10:00:00 16.8 24 Norte 38 Noroeste 0 -- -- 74
2019-01-31 09:00:00 16.9 17 Norte 33 Noroeste 0 -- -- 68
2019-01-31 08:00:00 17 23 Norte 33 Norte 0 -- -- 66
2019-01-31 07:00:00 16.6 13 Norte 19 Norte 0 -- -- 65
2019-01-31 06:00:00 16.5 15 Norte 32 Norte 0 -- -- 65
2019-01-31 05:00:00 16.4 22 Norte 39 Norte 0 -- -- 68
2019-01-31 04:00:00 16.5 20 Norte 34 Noroeste 0 -- -- 65
2019-01-31 03:00:00 16.3 23 Norte 34 Norte 0 -- -- 65
2019-01-31 02:00:00 16.3 25 Norte 37 Norte 0 -- -- 68
2019-01-31 01:00:00 16.6 22 Norte 31 Norte 0 -- -- 71
2019-01-31 00:00:00 16.2 23 Norte 39 Norte 0 -- -- 76
2019-01-30 23:00:00 16.3 22 Norte 41 Norte 0 -- -- 76
2019-01-30 22:00:00 15.8 32 Norte 51 Norte 0 -- -- 81
2019-01-30 21:00:00 15.1 20 Norte 41 Norte 0 -- -- 89
2019-01-30 20:00:00 16.3 25 Norte 40 Norte 0 -- -- 78
2019-01-30 19:00:00 16.9 21 Norte 46 Norte 0 -- -- 73
2019-01-30 18:00:00 17.3 32 Norte 47 Norte 0 -- -- 69
2019-01-30 17:00:00 18.5 28 Norte 41 Norte 0 -- -- 64
2019-01-30 16:00:00 18.5 31 Norte 42 Noroeste 0 -- -- 65
2019-01-30 15:00:00 18.8 28 Norte 39 Norte 0 -- -- 62
2019-01-30 14:00:00 18.7 27 Norte 41 Norte 0 -- -- 64
2019-01-30 13:00:00 18.1 27 Norte 38 Norte 0 -- -- 69
2019-01-30 12:00:00 18.1 26 Norte 39 Norte 0 -- -- 73
2019-01-30 11:00:00 17.8 28 Norte 35 Norte 0 -- -- 71
2019-01-30 10:00:00 18 10 Norte 33 Norte 0 -- -- 76
2019-01-30 09:00:00 16.6 20 Nordeste 36 Norte 0 -- -- 77
2019-01-30 08:00:00 16.9 31 Norte 42 Norte 0 -- -- 77
2019-01-30 07:00:00 16.6 14 Norte 22 Norte 0 -- -- 78
2019-01-30 06:00:00 16.2 27 Norte 44 Norte 0 -- -- 83
2019-01-30 05:00:00 16.9 21 Norte 28 Nordeste 0 -- -- 72
2019-01-30 04:00:00 17 17 Nordeste 28 Norte 0 -- -- 76
2019-01-30 03:00:00 16.6 10 Norte 26 Norte 0 -- -- 84
2019-01-30 02:00:00 16.1 20 Norte 35 Norte 0 -- -- 89
2019-01-30 01:00:00 16.2 22 Norte 35 Norte 0 -- -- 87
2019-01-30 00:00:00 16.6 24 Norte 32 Norte 0 -- -- 86
2019-01-29 23:00:00 16.2 15 Norte 32 Norte 0 -- -- 89
2019-01-29 22:00:00 16.8 22 Norte 39 Norte 0 -- -- 85
2019-01-29 21:00:00 17 23 Norte 38 Norte 0 -- -- 82
2019-01-29 20:00:00 17.3 17 Norte 30 Norte 0 -- -- 84
2019-01-29 19:00:00 17.1 17 Norte 35 Norte 0 -- -- 83
2019-01-29 18:00:00 17.7 27 Norte 44 Norte 0 -- -- 73
2019-01-29 17:00:00 18 29 Norte 42 Norte 0 -- -- 68
2019-01-29 16:00:00 18.5 30 Norte 40 Norte 0 -- -- 70
2019-01-29 15:00:00 18.5 21 Nordeste 37 Norte 0 -- -- 68
2019-01-29 14:00:00 18.6 29 Norte 44 Norte 0 -- -- 68
2019-01-29 13:00:00 18.8 26 Norte 37 Noroeste 0 -- -- 69
2019-01-29 12:00:00 19 17 Norte 28 Norte 0 -- -- 67
2019-01-29 11:00:00 18.4 21 Norte 26 Norte 0 -- -- 65
2019-01-29 10:00:00 17.8 21 Norte 30 Norte 0 -- -- 70
2019-01-29 09:00:00 17.3 18 Norte 26 Nordeste 0 -- -- 72
2019-01-29 08:00:00 16.9 17 Norte 28 Norte 0 -- -- 77
2019-01-29 07:00:00 16.7 25 Norte 40 Norte 0 -- -- 79
2019-01-29 06:00:00 16.8 32 Norte 46 Norte 0 -- -- 79
2019-01-29 05:00:00 16.7 22 Norte 36 Norte 0 -- -- 78
2019-01-29 04:00:00 17 32 Norte 45 Norte 0 -- -- 77
2019-01-29 03:00:00 16.7 21 Norte 32 Norte 0 -- -- 74
2019-01-29 02:00:00 17 14 Norte 25 Norte 0 -- -- 72
2019-01-29 01:00:00 17 21 Norte 27 Norte 0 -- -- 73
2019-01-29 00:00:00 17 20 Norte 29 Norte 0 -- -- 72
2019-01-28 23:00:00 17 19 Norte 24 Norte 0 -- -- 70
2019-01-28 22:00:00 16.8 6 Norte 31 Nordeste 0 -- -- 65
2019-01-28 21:00:00 17.2 29 Nordeste 42 Nordeste 0 -- -- 67
2019-01-28 20:00:00 17.1 26 Norte 36 Norte 0 -- -- 66
2019-01-28 19:00:00 17.1 31 Nordeste 46 Nordeste 0 -- -- 64
2019-01-28 18:00:00 17.8 28 Nordeste 39 Nordeste 0 -- -- 66
2019-01-28 17:00:00 18.6 24 Norte 43 Norte 0 -- -- 63
2019-01-28 16:00:00 18.3 37 Norte 55 Norte 0 -- -- 64
2019-01-28 15:00:00 18.6 24 Nordeste 39 Norte 0 -- -- 62
2019-01-28 14:00:00 18.9 24 Norte 42 Norte 0 -- -- 61
2019-01-28 13:00:00 18.4 31 Norte 41 Norte 0 -- -- 64
2019-01-28 12:00:00 18 27 Norte 47 Norte 0 -- -- 64
2019-01-28 11:00:00 17.6 32 Norte 44 Norte 0 -- -- 65
2019-01-28 10:00:00 17.7 29 Norte 41 Norte 0 -- -- 63
2019-01-28 09:00:00 17.6 30 Norte 39 Norte 0 -- -- 63
2019-01-28 08:00:00 17.7 25 Norte 35 Norte 0 -- -- 61
2019-01-28 07:00:00 17.3 23 Nordeste 38 Norte 0 -- -- 68
2019-01-28 06:00:00 17.3 28 Norte 45 Norte 0 -- -- 68
2019-01-28 05:00:00 17.4 21 Norte 27 Norte 0 -- -- 74
2019-01-28 04:00:00 17.2 22 Norte 28 Norte 0 -- -- 74
2019-01-28 03:00:00 17.4 22 Norte 28 Norte 0 -- -- 74
2019-01-28 02:00:00 17.3 21 Norte 29 Norte 0 -- -- 73
2019-01-28 01:00:00 17.7 21 Norte 31 Norte 0 -- -- 73
2019-01-28 00:00:00 17.8 23 Norte 32 Norte 0 -- -- 76
2019-01-27 23:00:00 18.1 23 Norte 31 Norte 0 -- -- 80
2019-01-27 22:00:00 17.9 21 Norte 36 Norte 0 -- -- 75
2019-01-27 21:00:00 -- -- -- -- -- -- -- -- --
2019-01-27 20:00:00 18.2 24 Norte 42 Norte 0 -- -- 75
2019-01-27 19:00:00 18.3 24 Norte 38 Noroeste 0 -- -- 75
2019-01-27 18:00:00 18.9 25 Norte 36 Norte 0 -- -- 70
2019-01-27 17:00:00 19.7 9 Norte 14 Norte 0 -- -- 65
2019-01-27 16:00:00 19.3 9 Nordeste 14 Nordeste 0 -- -- 68
2019-01-27 15:00:00 19.7 4 Norte 13 Nordeste 0 -- -- 65
2019-01-27 14:00:00 19.6 6 Este 13 Este 0 -- -- 67
2019-01-27 13:00:00 19.4 9 Este 14 Este 0 -- -- 66
2019-01-27 12:00:00 19.4 3 Norte 9 Noroeste 0 -- -- 67
2019-01-27 11:00:00 20 5 Nordeste 9 Norte 0 -- -- 70
2019-01-27 10:00:00 17.9 10 Nordeste 15 Norte 0 -- -- 81
2019-01-27 09:00:00 17.6 2 Nordeste 8 Oeste 0 -- -- 83
2019-01-27 08:00:00 16.6 4 Oeste 8 Oeste 0 -- -- 84
2019-01-27 07:00:00 17 2 Noroeste 12 Norte 0 -- -- 82
2019-01-27 06:00:00 17 9 Norte 16 Norte 0 -- -- 84
2019-01-27 05:00:00 17.2 7 Noroeste 11 Norte 0 -- -- 81
2019-01-27 04:00:00 16.8 7 Norte 10 Norte 0 -- -- 85
2019-01-27 03:00:00 16.5 0 Calma 5 Sur 0 -- -- 87
2019-01-27 02:00:00 16.5 0 Calma 9 Nordeste 0 -- -- 86
2019-01-27 01:00:00 17.2 8 Nordeste 11 Nordeste 0 -- -- 85
2019-01-27 00:00:00 17.5 8 Este 14 Este 0 -- -- 83
2019-01-26 23:00:00 17.9 9 Este 13 Este 0 -- -- 78
2019-01-26 22:00:00 18.1 7 Este 11 Este 0 -- -- 77
2019-01-26 21:00:00 18.1 10 Este 16 Este 0 -- -- 78
2019-01-26 20:00:00 18.2 11 Nordeste 19 Noroeste 0 -- -- 74
2019-01-26 19:00:00 18.5 16 Norte 23 Noroeste 0 -- -- 73
2019-01-26 18:00:00 19.4 14 Noroeste 20 Noroeste 0 -- -- 66
2019-01-26 17:00:00 19.9 15 Noroeste 26 Noroeste 0 -- -- 62
2019-01-26 16:00:00 19.6 20 Noroeste 28 Noroeste 0 -- -- 61
2019-01-26 15:00:00 19.7 16 Noroeste 24 Noroeste 0 -- -- 63
2019-01-26 14:00:00 19.6 15 Noroeste 22 Noroeste 0 -- -- 66
2019-01-26 13:00:00 19.9 10 Noroeste 19 Noroeste 0 -- -- 63
2019-01-26 12:00:00 19.9 13 Noroeste 17 Norte 0 -- -- 57
2019-01-26 11:00:00 19.4 6 Oeste 10 Noroeste 0 -- -- 61
2019-01-26 10:00:00 18.6 7 Norte 13 Norte 0 -- -- 65
2019-01-26 09:00:00 19.9 7 Oeste 13 Oeste 0 -- -- 61
2019-01-26 08:00:00 17.5 3 Sur 7 Sudoeste 0 -- -- 65
2019-01-26 07:00:00 17.6 5 Sudoeste 8 Sudoeste 0 -- -- 61
2019-01-26 06:00:00 17.4 4 Oeste 8 Sudoeste 0 -- -- 63
2019-01-26 05:00:00 17.3 5 Sudoeste 8 Sudoeste 0 -- -- 69
2019-01-26 04:00:00 17.4 5 Sudoeste 7 Sudoeste 0 -- -- 72
2019-01-26 03:00:00 17.4 4 Sudoeste 8 Sudoeste 0 -- -- 76
2019-01-26 02:00:00 17.4 0 Calma 5 Norte 0 -- -- 77
2019-01-26 01:00:00 17.2 2 Sur 6 Sur 0 -- -- 81
2019-01-26 00:00:00 17.4 0 Calma 14 Norte 0 -- -- 80
2019-01-25 23:00:00 17.1 6 Norte 12 Norte 0 -- -- 84
2019-01-25 22:00:00 17.3 3 Sudeste 15 Este 0 -- -- 85
2019-01-25 21:00:00 17.6 10 Norte 18 Norte 0 -- -- 85
2019-01-25 20:00:00 17.7 13 Norte 18 Norte 0 -- -- 83
2019-01-25 19:00:00 17.9 11 Noroeste 18 Noroeste 0 -- -- 80
2019-01-25 18:00:00 18.3 13 Oeste 18 Noroeste 0 -- -- 76
2019-01-25 17:00:00 19.2 13 Noroeste 22 Noroeste 0 -- -- 71
2019-01-25 16:00:00 18.6 18 Noroeste 24 Noroeste 0 -- -- 72
2019-01-25 15:00:00 18.7 16 Noroeste 27 Noroeste 0 -- -- 74
2019-01-25 14:00:00 18.7 20 Noroeste 28 Noroeste 0 -- -- 71
2019-01-25 13:00:00 18.7 15 Noroeste 21 Norte 0 -- -- 70
2019-01-25 12:00:00 19.8 7 Noroeste 13 Noroeste 0 -- -- 67
2019-01-25 11:00:00 19.1 7 Norte 17 Norte 0 -- -- 74
2019-01-25 10:00:00 18.2 14 Norte 20 Norte 0 -- -- 81
2019-01-25 09:00:00 17.9 13 Norte 22 Norte 0 -- -- 82
2019-01-25 08:00:00 16.7 11 Norte 17 Noroeste 0 -- -- 86
2019-01-25 07:00:00 16.5 12 Norte 26 Norte 0 -- -- 84
2019-01-25 06:00:00 16.6 13 Norte 19 Norte 0 -- -- 87
2019-01-25 05:00:00 16.2 14 Norte 30 Norte 0 -- -- 88
2019-01-25 04:00:00 16.7 15 Norte 23 Norte 0 -- -- 87
2019-01-25 03:00:00 16.6 14 Norte 21 Norte 0 -- -- 92
2019-01-25 02:00:00 16.1 4 Norte 25 Norte 0 -- -- 92
2019-01-25 01:00:00 16.7 17 Norte 26 Norte 0 -- -- 90
2019-01-25 00:00:00 16.6 16 Norte 24 Norte 0 -- -- 88
2019-01-24 23:00:00 16.9 18 Norte 30 Norte 0 -- -- 88
2019-01-24 22:00:00 16.7 17 Norte 28 Norte 0 -- -- 87
2019-01-24 21:00:00 17 23 Norte 34 Norte 0 -- -- 88
2019-01-24 20:00:00 16.7 23 Norte 39 Norte 0.2 -- -- 90
2019-01-24 19:00:00 16.9 19 Norte 33 Norte 0 -- -- 87
2019-01-24 18:00:00 17.5 25 Norte 39 Norte 0 -- -- 85
2019-01-24 17:00:00 17.6 23 Noroeste 36 Norte 0 -- -- 78
2019-01-24 16:00:00 17.9 31 Noroeste 57 Norte 0 -- -- 72
2019-01-24 15:00:00 18.4 27 Noroeste 37 Norte 0 -- -- 67
2019-01-24 14:00:00 18.2 30 Norte 48 Noroeste 0 -- -- 68
2019-01-24 13:00:00 18.7 25 Norte 39 Norte 0 -- -- 63
2019-01-24 12:00:00 18.2 30 Norte 48 Norte 0 -- -- 63
2019-01-24 11:00:00 18.2 30 Norte 43 Norte 0 -- -- 62
2019-01-24 10:00:00 17.4 17 Norte 28 Noroeste 0 -- -- 79
2019-01-24 09:00:00 14.9 12 Norte 39 Norte 0 -- -- 88
2019-01-24 08:00:00 16.1 21 Norte 29 Norte 0 -- -- 74
2019-01-24 07:00:00 16.1 26 Nordeste 41 Norte 0 -- -- 74
2019-01-24 06:00:00 16.2 21 Norte 37 Nordeste 0 -- -- 74
2019-01-24 05:00:00 16.3 22 Norte 38 Nordeste 0 -- -- 73
2019-01-24 04:00:00 16.8 21 Norte 35 Norte 0 -- -- 65
2019-01-24 03:00:00 17 29 Norte 40 Norte 0 -- -- 69
2019-01-24 02:00:00 16.8 19 Norte 28 Norte 0 -- -- 83
2019-01-24 01:00:00 16.7 18 Nordeste 27 Norte 0 -- -- 83
2019-01-24 00:00:00 16.7 26 Norte 39 Norte 0 -- -- 77
2019-01-23 23:00:00 17.1 18 Norte 26 Norte 0 -- -- 71
2019-01-23 22:00:00 16.8 10 Norte 22 Norte 0 -- -- 68
2019-01-23 21:00:00 17 16 Norte 23 Nordeste 0 -- -- 68
2019-01-23 20:00:00 17 21 Norte 29 Norte 0 -- -- 68
2019-01-23 19:00:00 17.3 22 Norte 38 Norte 0 -- -- 68
2019-01-23 18:00:00 17.6 27 Norte 38 Norte 0 -- -- 68
2019-01-23 17:00:00 17.7 22 Norte 38 Norte 0 -- -- 67
2019-01-23 16:00:00 17.8 32 Norte 41 Norte 0 -- -- 66
2019-01-23 15:00:00 18 27 Norte 39 Norte 0 -- -- 70
2019-01-23 14:00:00 18.4 23 Norte 30 Norte 0 -- -- 65
2019-01-23 13:00:00 18 23 Nordeste 36 Nordeste 0 -- -- 55
2019-01-23 12:00:00 17.8 23 Norte 35 Nordeste 0 -- -- 61
2019-01-23 11:00:00 17.5 21 Norte 37 Norte 0 -- -- 59
2019-01-23 10:00:00 17.2 21 Norte 32 Norte 0 -- -- 59
2019-01-23 09:00:00 16.9 21 Norte 42 Norte 0 -- -- 59
2019-01-23 08:00:00 17 23 Norte 33 Norte 0 -- -- 61
2019-01-23 07:00:00 16.5 21 Norte 37 Norte 0 -- -- 56
2019-01-23 06:00:00 16.7 18 Norte 35 Nordeste 0 -- -- 59
2019-01-23 05:00:00 16.7 24 Norte 33 Norte 0 -- -- 59
2019-01-23 04:00:00 16.5 23 Norte 37 Norte 0 -- -- 57
2019-01-23 03:00:00 16.7 22 Norte 33 Nordeste 0 -- -- 60
2019-01-23 02:00:00 16.6 25 Norte 44 Norte 0 -- -- 58
2019-01-23 01:00:00 16.7 23 Norte 41 Nordeste 0 -- -- 59
2019-01-23 00:00:00 16.8 31 Norte 41 Norte 0 -- -- 60
2019-01-22 23:00:00 17 26 Nordeste 41 Nordeste 0 -- -- 59
2019-01-22 22:00:00 17 28 Norte 41 Nordeste 0 -- -- 58
2019-01-22 21:00:00 17.2 28 Nordeste 45 Nordeste 0 -- -- 59
2019-01-22 20:00:00 17.3 28 Norte 42 Norte 0 -- -- 60
2019-01-22 19:00:00 17.3 32 Nordeste 41 Norte 0 -- -- 58
2019-01-22 18:00:00 17.6 29 Norte 43 Norte 0 -- -- 56
2019-01-22 17:00:00 17.9 24 Nordeste 35 Nordeste 0 -- -- 57
2019-01-22 16:00:00 18.1 26 Nordeste 37 Nordeste 0 -- -- 58
2019-01-22 15:00:00 18.4 26 Nordeste 36 Nordeste 0 -- -- 56
2019-01-22 14:00:00 18.6 27 Nordeste 42 Nordeste 0 -- -- 57
2019-01-22 13:00:00 18.2 28 Nordeste 36 Nordeste 0 -- -- 56
2019-01-22 12:00:00 18.3 28 Nordeste 40 Nordeste 0 -- -- 60
2019-01-22 11:00:00 18.3 32 Norte 47 Nordeste 0 -- -- 55
2019-01-22 10:00:00 17.5 26 Norte 43 Norte 0 -- -- 58
2019-01-22 09:00:00 17.1 25 Norte 38 Norte 0 -- -- 59
2019-01-22 08:00:00 16.7 24 Norte 36 Norte 0 -- -- 56
2019-01-22 07:00:00 16.6 31 Norte 40 Norte 0 -- -- 60
2019-01-22 06:00:00 16.5 25 Norte 45 Norte 0 -- -- 54
2019-01-22 05:00:00 16.7 35 Nordeste 45 Nordeste 0 -- -- 54
2019-01-22 04:00:00 17 39 Nordeste 51 Nordeste 0 -- -- 58
2019-01-22 03:00:00 17.3 26 Norte 36 Norte 0 -- -- 58
2019-01-22 02:00:00 17.2 28 Norte 38 Norte 0 -- -- 60
2019-01-22 01:00:00 17.1 23 Norte 36 Norte 0 -- -- 55
2019-01-22 00:00:00 17.1 23 Norte 36 Norte 0 -- -- 54
2019-01-21 23:00:00 17 28 Norte 42 Norte 0 -- -- 61
2019-01-21 22:00:00 17 24 Norte 40 Norte 0 -- -- 67
2019-01-21 21:00:00 17.1 26 Norte 36 Norte 0 -- -- 65
2019-01-21 20:00:00 17.1 29 Norte 40 Norte 0 -- -- 63
2019-01-21 19:00:00 17.4 30 Norte 48 Norte 0 -- -- 65
2019-01-21 18:00:00 17.6 31 Norte 44 Norte 0 -- -- 61
2019-01-21 17:00:00 18.5 30 Norte 41 Norte 0 -- -- 59
2019-01-21 16:00:00 18.6 33 Norte 43 Norte 0 -- -- 54
2019-01-21 15:00:00 18.7 30 Norte 48 Norte 0 -- -- 60
2019-01-21 14:00:00 18.5 27 Norte 38 Norte 0 -- -- 61
2019-01-21 13:00:00 18.3 30 Norte 43 Norte 0 -- -- 56
2019-01-21 12:00:00 17.6 18 Norte 55 Norte 0 -- -- 63
2019-01-21 11:00:00 17.3 36 Norte 61 Norte 0 -- -- 67
2019-01-21 10:00:00 17.7 27 Nordeste 43 Norte 0 -- -- 56
2019-01-21 09:00:00 17.4 30 Norte 47 Norte 0 -- -- 59
2019-01-21 08:00:00 17 25 Norte 42 Norte 0 -- -- 74
2019-01-21 07:00:00 17 26 Norte 51 Norte 0 -- -- 74
2019-01-21 06:00:00 17.4 28 Norte 41 Norte 0 -- -- 70
2019-01-21 05:00:00 17.5 26 Norte 34 Norte 0 -- -- 76
2019-01-21 04:00:00 17.3 19 Norte 36 Norte 0 -- -- 79
2019-01-21 03:00:00 16.8 28 Norte 40 Norte 0 -- -- 84
2019-01-21 02:00:00 17.3 30 Norte 37 Norte 0 -- -- 84
2019-01-21 01:00:00 17.7 23 Norte 33 Norte 0 -- -- 81
2019-01-21 00:00:00 17.5 15 Norte 26 Norte 0 -- -- 76
2019-01-20 23:00:00 17.4 21 Norte 38 Norte 0 -- -- 75
2019-01-20 22:00:00 17.6 31 Norte 46 Norte 0 -- -- 76
2019-01-20 21:00:00 17.8 25 Norte 43 Norte 0 -- -- 86
2019-01-20 20:00:00 17.5 19 Noroeste 37 Noroeste 0 -- -- 89
2019-01-20 19:00:00 18.4 23 Noroeste 39 Noroeste 0 -- -- 73
2019-01-20 18:00:00 18.6 22 Noroeste 35 Noroeste 0 -- -- 69
2019-01-20 17:00:00 18.9 18 Noroeste 32 Noroeste 0 -- -- 68
2019-01-20 16:00:00 19.6 19 Noroeste 35 Noroeste 0 -- -- 61
2019-01-20 15:00:00 19.5 20 Noroeste 41 Noroeste 0 -- -- 58
2019-01-20 14:00:00 19.4 21 Noroeste 33 Noroeste 0 -- -- 57
2019-01-20 13:00:00 19.2 22 Noroeste 37 Noroeste 0 -- -- 58
2019-01-20 12:00:00 19 16 Noroeste 25 Noroeste 0 -- -- 56
2019-01-20 11:00:00 18.8 14 Noroeste 38 Noroeste 0 -- -- 54
2019-01-20 10:00:00 18 26 Noroeste 43 Noroeste 0 -- -- 58
2019-01-20 09:00:00 17.8 20 Noroeste 32 Norte 0 -- -- 65
2019-01-20 08:00:00 17.5 23 Norte 34 Norte 0 -- -- 61
2019-01-20 07:00:00 17.6 22 Noroeste 32 Noroeste 0 -- -- 65
2019-01-20 06:00:00 17.6 21 Norte 34 Norte 0 -- -- 63
2019-01-20 05:00:00 17.9 22 Norte 30 Norte 0 -- -- 63
2019-01-20 04:00:00 17.7 13 Norte 22 Norte 0 -- -- 61
2019-01-20 03:00:00 17.7 14 Norte 27 Norte 0 -- -- 64
2019-01-20 02:00:00 17.7 18 Norte 23 Norte 0 -- -- 63
2019-01-20 01:00:00 17.7 15 Norte 25 Norte 0 -- -- 64
2019-01-20 00:00:00 17.7 16 Norte 28 Nordeste 0 -- -- 60
2019-01-19 23:00:00 17.7 19 Norte 27 Norte 0 -- -- 68
2019-01-19 22:00:00 17.8 21 Norte 32 Norte 0 -- -- 65
2019-01-19 21:00:00 17.8 18 Norte 32 Norte 0 -- -- 66
2019-01-19 20:00:00 17.6 25 Norte 35 Norte 0 -- -- 72
2019-01-19 19:00:00 17.7 21 Norte 35 Norte 0 -- -- 70
2019-01-19 18:00:00 17.8 19 Norte 28 Norte 0 -- -- 73
2019-01-19 17:00:00 17.8 19 Norte 33 Norte 0 -- -- 67
2019-01-19 16:00:00 18.2 20 Norte 30 Norte 0 -- -- 68
2019-01-19 15:00:00 17.9 27 Norte 36 Norte 0 -- -- 69
2019-01-19 14:00:00 17.9 21 Norte 32 Norte 0 -- -- 69
2019-01-19 13:00:00 17.3 27 Norte 37 Norte 0 -- -- 76
2019-01-19 12:00:00 17.6 19 Nordeste 39 Norte 0 -- -- 71
2019-01-19 11:00:00 18 21 Norte 32 Norte 0 -- -- 65
2019-01-19 10:00:00 17.3 17 Norte 32 Norte 0 -- -- 69
2019-01-19 09:00:00 17.3 21 Norte 39 Norte 0 -- -- 64
2019-01-19 08:00:00 17.1 22 Nordeste 33 Norte 0 -- -- 61
2019-01-19 07:00:00 16.6 18 Norte 37 Norte 0 -- -- 70
2019-01-19 06:00:00 17 26 Norte 36 Norte 0 -- -- 67
2019-01-19 05:00:00 17.2 15 Norte 26 Norte 0 -- -- 65
2019-01-19 04:00:00 17.2 21 Norte 35 Norte 0 -- -- 64
2019-01-19 03:00:00 16.9 18 Norte 37 Norte 0 -- -- 70
2019-01-19 02:00:00 17.1 20 Norte 30 Norte 0 -- -- 66
2019-01-19 01:00:00 17.3 20 Norte 33 Norte 0 -- -- 63
2019-01-19 00:00:00 17 15 Nordeste 31 Norte 0 -- -- 53